sensor_id;sensor_type;location;lat;lon;timestamp;pressure;altitude;pressure_sealevel;temperature
72405;BMP280;60395;52.020;113.548;2023-01-31T00:00:04;92277.75;;;-8.97
72405;BMP280;60395;52.020;113.548;2023-01-31T00:03:10;92275.88;;;-8.97
72405;BMP280;60395;52.020;113.548;2023-01-31T00:09:20;92298.31;;;-8.93
72405;BMP280;60395;52.020;113.548;2023-01-31T00:12:24;92294.47;;;-8.94
72405;BMP280;60395;52.020;113.548;2023-01-31T00:15:27;92305.41;;;-8.92
72405;BMP280;60395;52.020;113.548;2023-01-31T00:18:31;92321.13;;;-8.95
72405;BMP280;60395;52.020;113.548;2023-01-31T00:21:34;92330.06;;;-8.94
72405;BMP280;60395;52.020;113.548;2023-01-31T00:24:38;92335.16;;;-8.94
72405;BMP280;60395;52.020;113.548;2023-01-31T00:27:42;92334.38;;;-8.97
72405;BMP280;60395;52.020;113.548;2023-01-31T00:30:46;92335.06;;;-8.96
72405;BMP280;60395;52.020;113.548;2023-01-31T00:33:52;92337.13;;;-8.93
72405;BMP280;60395;52.020;113.548;2023-01-31T00:36:56;92327.06;;;-8.91
72405;BMP280;60395;52.020;113.548;2023-01-31T00:40:09;92332.16;;;-8.91
72405;BMP280;60395;52.020;113.548;2023-01-31T00:43:13;92342.22;;;-8.93
72405;BMP280;60395;52.020;113.548;2023-01-31T00:46:17;92343.69;;;-8.89
72405;BMP280;60395;52.020;113.548;2023-01-31T00:49:22;92350.88;;;-8.86
72405;BMP280;60395;52.020;113.548;2023-01-31T00:52:37;92356.16;;;-8.82
72405;BMP280;60395;52.020;113.548;2023-01-31T00:55:42;92352.94;;;-8.82
72405;BMP280;60395;52.020;113.548;2023-01-31T00:58:46;92355.16;;;-8.77
72405;BMP280;60395;52.020;113.548;2023-01-31T01:01:53;92357.28;;;-8.73
72405;BMP280;60395;52.020;113.548;2023-01-31T01:05:00;92368.91;;;-8.70
72405;BMP280;60395;52.020;113.548;2023-01-31T01:08:04;92371.66;;;-8.66
72405;BMP280;60395;52.020;113.548;2023-01-31T01:11:08;92369.44;;;-8.60
72405;BMP280;60395;52.020;113.548;2023-01-31T01:14:12;92367.78;;;-8.56
72405;BMP280;60395;52.020;113.548;2023-01-31T01:17:15;92383.81;;;-8.53
72405;BMP280;60395;52.020;113.548;2023-01-31T01:20:19;92386.91;;;-8.43
72405;BMP280;60395;52.020;113.548;2023-01-31T01:23:23;92386.13;;;-8.34
72405;BMP280;60395;52.020;113.548;2023-01-31T01:26:30;92391.28;;;-8.20
72405;BMP280;60395;52.020;113.548;2023-01-31T01:29:34;92407.34;;;-8.06
72405;BMP280;60395;52.020;113.548;2023-01-31T01:32:38;92410.81;;;-7.88
72405;BMP280;60395;52.020;113.548;2023-01-31T01:35:41;92415.66;;;-7.68
72405;BMP280;60395;52.020;113.548;2023-01-31T01:38:45;92424.38;;;-7.60
72405;BMP280;60395;52.020;113.548;2023-01-31T01:41:49;92436.69;;;-7.56
72405;BMP280;60395;52.020;113.548;2023-01-31T01:45:01;92436.69;;;-7.56
72405;BMP280;60395;52.020;113.548;2023-01-31T01:48:06;92450.72;;;-7.55
72405;BMP280;60395;52.020;113.548;2023-01-31T01:51:12;92446.28;;;-7.55
72405;BMP280;60395;52.020;113.548;2023-01-31T01:54:23;92459.19;;;-7.53
72405;BMP280;60395;52.020;113.548;2023-01-31T01:57:34;92457.31;;;-7.64
72405;BMP280;60395;52.020;113.548;2023-01-31T02:00:39;92460.31;;;-7.67
72405;BMP280;60395;52.020;113.548;2023-01-31T02:03:44;92466.19;;;-7.65
72405;BMP280;60395;52.020;113.548;2023-01-31T02:06:49;92468.94;;;-7.61
72405;BMP280;60395;52.020;113.548;2023-01-31T02:10:16;92477.41;;;-7.45
72405;BMP280;60395;52.020;113.548;2023-01-31T02:13:21;92475.19;;;-7.38
72405;BMP280;60395;52.020;113.548;2023-01-31T02:16:25;92471.66;;;-7.20
72405;BMP280;60395;52.020;113.548;2023-01-31T02:20:07;92474.06;;;-7.10
72405;BMP280;60395;52.020;113.548;2023-01-31T02:34:15;92498.75;;;-6.76
72405;BMP280;60395;52.020;113.548;2023-01-31T02:44:31;92511.69;;;-6.72
72405;BMP280;60395;52.020;113.548;2023-01-31T02:51:22;92527.44;;;-6.63
72405;BMP280;60395;52.020;113.548;2023-01-31T02:54:28;92532.84;;;-6.57
72405;BMP280;60395;52.020;113.548;2023-01-31T02:57:56;92537.22;;;-6.46
72405;BMP280;60395;52.020;113.548;2023-01-31T03:01:01;92537.88;;;-6.46
72405;BMP280;60395;52.020;113.548;2023-01-31T03:04:09;92530.53;;;-6.26
72405;BMP280;60395;52.020;113.548;2023-01-31T03:07:16;92531.78;;;-6.13
72405;BMP280;60395;52.020;113.548;2023-01-31T03:21:00;92551.00;;;-5.85
72405;BMP280;60395;52.020;113.548;2023-01-31T03:24:05;92533.75;;;-5.98
72405;BMP280;60395;52.020;113.548;2023-01-31T03:27:09;92537.44;;;-6.01
72405;BMP280;60395;52.020;113.548;2023-01-31T03:30:19;92536.22;;;-5.86
72405;BMP280;60395;52.020;113.548;2023-01-31T03:33:45;92543.75;;;-5.88
72405;BMP280;60395;52.020;113.548;2023-01-31T03:36:56;92540.28;;;-5.95
72405;BMP280;60395;52.020;113.548;2023-01-31T03:40:25;92549.84;;;-5.96
72405;BMP280;60395;52.020;113.548;2023-01-31T03:43:38;92559.59;;;-6.19
72405;BMP280;60395;52.020;113.548;2023-01-31T03:46:54;92556.53;;;-6.29
72405;BMP280;60395;52.020;113.548;2023-01-31T03:50:08;92570.81;;;-6.38
72405;BMP280;60395;52.020;113.548;2023-01-31T03:53:36;92569.69;;;-6.35
72405;BMP280;60395;52.020;113.548;2023-01-31T03:56:49;92584.06;;;-6.42
72405;BMP280;60395;52.020;113.548;2023-01-31T03:59:56;92576.19;;;-6.46
72405;BMP280;60395;52.020;113.548;2023-01-31T04:03:35;92583.19;;;-6.46
72405;BMP280;60395;52.020;113.548;2023-01-31T04:06:40;92578.81;;;-6.57
72405;BMP280;60395;52.020;113.548;2023-01-31T04:09:43;92576.50;;;-6.65
72405;BMP280;60395;52.020;113.548;2023-01-31T04:12:47;92589.53;;;-6.73
72405;BMP280;60395;52.020;113.548;2023-01-31T04:15:50;92590.00;;;-6.76
72405;BMP280;60395;52.020;113.548;2023-01-31T04:18:54;92586.16;;;-6.89
72405;BMP280;60395;52.020;113.548;2023-01-31T04:21:58;92588.03;;;-6.89
72405;BMP280;60395;52.020;113.548;2023-01-31T04:25:01;92597.34;;;-6.82
72405;BMP280;60395;52.020;113.548;2023-01-31T04:28:04;92592.66;;;-6.74
72405;BMP280;60395;52.020;113.548;2023-01-31T04:31:08;92595.09;;;-6.51
72405;BMP280;60395;52.020;113.548;2023-01-31T04:34:12;92598.97;;;-6.24
72405;BMP280;60395;52.020;113.548;2023-01-31T04:37:16;92602.75;;;-6.12
72405;BMP280;60395;52.020;113.548;2023-01-31T04:40:19;92607.59;;;-6.04
72405;BMP280;60395;52.020;113.548;2023-01-31T04:43:22;92622.16;;;-6.07
72405;BMP280;60395;52.020;113.548;2023-01-31T04:46:25;92615.53;;;-6.12
72405;BMP280;60395;52.020;113.548;2023-01-31T04:49:29;92614.38;;;-6.22
72405;BMP280;60395;52.020;113.548;2023-01-31T04:52:32;92604.97;;;-6.31
72405;BMP280;60395;52.020;113.548;2023-01-31T04:55:36;92613.50;;;-6.41
72405;BMP280;60395;52.020;113.548;2023-01-31T04:58:39;92615.69;;;-6.60
72405;BMP280;60395;52.020;113.548;2023-01-31T05:01:43;92618.94;;;-6.72
72405;BMP280;60395;52.020;113.548;2023-01-31T05:04:46;92609.16;;;-6.63
72405;BMP280;60395;52.020;113.548;2023-01-31T05:07:49;92617.31;;;-6.53
72405;BMP280;60395;52.020;113.548;2023-01-31T05:10:57;92618.59;;;-6.41
72405;BMP280;60395;52.020;113.548;2023-01-31T05:14:04;92627.06;;;-6.24
72405;BMP280;60395;52.020;113.548;2023-01-31T05:17:07;92627.53;;;-6.28
72405;BMP280;60395;52.020;113.548;2023-01-31T05:20:11;92624.31;;;-6.28
72405;BMP280;60395;52.020;113.548;2023-01-31T05:23:16;92623.75;;;-6.27
72405;BMP280;60395;52.020;113.548;2023-01-31T05:26:19;92620.63;;;-6.12
72405;BMP280;60395;52.020;113.548;2023-01-31T05:29:25;92626.91;;;-6.15
72405;BMP280;60395;52.020;113.548;2023-01-31T05:32:29;92635.84;;;-6.27
72405;BMP280;60395;52.020;113.548;2023-01-31T05:35:32;92621.47;;;-6.35
72405;BMP280;60395;52.020;113.548;2023-01-31T05:38:35;92622.69;;;-6.22
72405;BMP280;60395;52.020;113.548;2023-01-31T05:41:38;92633.91;;;-6.15
72405;BMP280;60395;52.020;113.548;2023-01-31T05:44:42;92636.91;;;-6.19
72405;BMP280;60395;52.020;113.548;2023-01-31T05:47:46;92639.00;;;-6.15
72405;BMP280;60395;52.020;113.548;2023-01-31T05:50:49;92620.63;;;-6.12
72405;BMP280;60395;52.020;113.548;2023-01-31T05:53:52;92642.34;;;-6.13
72405;BMP280;60395;52.020;113.548;2023-01-31T05:56:56;92620.25;;;-6.06
72405;BMP280;60395;52.020;113.548;2023-01-31T06:00:00;92631.66;;;-5.96
72405;BMP280;60395;52.020;113.548;2023-01-31T06:03:12;92641.41;;;-5.92
72405;BMP280;60395;52.020;113.548;2023-01-31T06:06:16;92642.25;;;-6.01
72405;BMP280;60395;52.020;113.548;2023-01-31T06:09:19;92637.63;;;-5.91
72405;BMP280;60395;52.020;113.548;2023-01-31T06:12:22;92642.66;;;-5.79
72405;BMP280;60395;52.020;113.548;2023-01-31T06:15:25;92652.97;;;-5.91
72405;BMP280;60395;52.020;113.548;2023-01-31T06:18:29;92657.59;;;-6.01
72405;BMP280;60395;52.020;113.548;2023-01-31T06:21:32;92671.75;;;-6.12
72405;BMP280;60395;52.020;113.548;2023-01-31T06:24:36;92671.34;;;-6.20
72405;BMP280;60395;52.020;113.548;2023-01-31T06:27:39;92667.53;;;-6.07
72405;BMP280;60395;52.020;113.548;2023-01-31T06:30:42;92681.09;;;-6.16
72405;BMP280;60395;52.020;113.548;2023-01-31T06:33:46;92676.13;;;-6.14
72405;BMP280;60395;52.020;113.548;2023-01-31T06:36:49;92699.19;;;-6.26
72405;BMP280;60395;52.020;113.548;2023-01-31T06:39:52;92702.88;;;-6.29
72405;BMP280;60395;52.020;113.548;2023-01-31T06:42:57;92709.34;;;-6.40
72405;BMP280;60395;52.020;113.548;2023-01-31T06:46:00;92703.28;;;-6.58
72405;BMP280;60395;52.020;113.548;2023-01-31T06:49:03;92709.63;;;-6.59
72405;BMP280;60395;52.020;113.548;2023-01-31T06:52:07;92725.41;;;-6.62
72405;BMP280;60395;52.020;113.548;2023-01-31T06:55:10;92740.13;;;-6.49
72405;BMP280;60395;52.020;113.548;2023-01-31T06:58:14;92744.47;;;-6.40
72405;BMP280;60395;52.020;113.548;2023-01-31T07:01:17;92754.22;;;-6.48
72405;BMP280;60395;52.020;113.548;2023-01-31T07:04:20;92761.91;;;-6.48
72405;BMP280;60395;52.020;113.548;2023-01-31T07:07:23;92772.31;;;-6.44
72405;BMP280;60395;52.020;113.548;2023-01-31T07:10:27;92774.88;;;-6.44
72405;BMP280;60395;52.020;113.548;2023-01-31T07:13:31;92783.47;;;-6.51
72405;BMP280;60395;52.020;113.548;2023-01-31T07:16:34;92795.66;;;-6.61
72405;BMP280;60395;52.020;113.548;2023-01-31T07:19:39;92795.69;;;-6.73
72405;BMP280;60395;52.020;113.548;2023-01-31T07:22:42;92808.34;;;-6.75
72405;BMP280;60395;52.020;113.548;2023-01-31T07:25:46;92817.25;;;-6.76
72405;BMP280;60395;52.020;113.548;2023-01-31T07:28:51;92816.38;;;-6.81
72405;BMP280;60395;52.020;113.548;2023-01-31T07:31:54;92822.25;;;-6.90
72405;BMP280;60395;52.020;113.548;2023-01-31T07:34:57;92819.69;;;-7.01
72405;BMP280;60395;52.020;113.548;2023-01-31T07:38:01;92825.56;;;-6.99
72405;BMP280;60395;52.020;113.548;2023-01-31T07:41:04;92821.78;;;-6.98
72405;BMP280;60395;52.020;113.548;2023-01-31T07:44:07;92826.47;;;-6.94
72405;BMP280;60395;52.020;113.548;2023-01-31T07:47:13;92836.78;;;-6.81
72405;BMP280;60395;52.020;113.548;2023-01-31T07:50:18;92834.91;;;-6.80
72405;BMP280;60395;52.020;113.548;2023-01-31T07:53:21;92846.34;;;-6.81
72405;BMP280;60395;52.020;113.548;2023-01-31T07:56:24;92839.66;;;-6.86
72405;BMP280;60395;52.020;113.548;2023-01-31T07:59:27;92846.44;;;-6.91
72405;BMP280;60395;52.020;113.548;2023-01-31T08:02:31;92849.97;;;-6.96
72405;BMP280;60395;52.020;113.548;2023-01-31T08:05:52;92853.63;;;-6.99
72405;BMP280;60395;52.020;113.548;2023-01-31T08:08:56;92864.41;;;-7.00
72405;BMP280;60395;52.020;113.548;2023-01-31T08:12:00;92862.72;;;-7.07
72405;BMP280;60395;52.020;113.548;2023-01-31T08:15:04;92864.72;;;-7.06
72405;BMP280;60395;52.020;113.548;2023-01-31T08:18:07;92874.69;;;-7.10
72405;BMP280;60395;52.020;113.548;2023-01-31T08:21:11;92875.78;;;-7.25
72405;BMP280;60395;52.020;113.548;2023-01-31T08:24:14;92881.09;;;-7.32
72405;BMP280;60395;52.020;113.548;2023-01-31T08:27:18;92884.84;;;-7.33
72405;BMP280;60395;52.020;113.548;2023-01-31T08:30:21;92887.75;;;-7.27
72405;BMP280;60395;52.020;113.548;2023-01-31T08:33:25;92898.53;;;-7.29
72405;BMP280;60395;52.020;113.548;2023-01-31T08:36:29;92898.53;;;-7.29
72405;BMP280;60395;52.020;113.548;2023-01-31T08:39:38;92904.66;;;-7.43
72405;BMP280;60395;52.020;113.548;2023-01-31T08:42:41;92905.97;;;-7.54
72405;BMP280;60395;52.020;113.548;2023-01-31T08:45:45;92921.50;;;-7.50
72405;BMP280;60395;52.020;113.548;2023-01-31T08:48:48;92919.41;;;-7.54
72405;BMP280;60395;52.020;113.548;2023-01-31T08:51:51;92917.69;;;-7.61
72405;BMP280;60395;52.020;113.548;2023-01-31T08:54:54;92935.22;;;-7.55
72405;BMP280;60395;52.020;113.548;2023-01-31T08:57:58;92935.22;;;-7.55
72405;BMP280;60395;52.020;113.548;2023-01-31T09:01:05;92937.00;;;-7.58
72405;BMP280;60395;52.020;113.548;2023-01-31T09:04:09;92937.38;;;-7.52
72405;BMP280;60395;52.020;113.548;2023-01-31T09:07:13;92938.44;;;-7.55
72405;BMP280;60395;52.020;113.548;2023-01-31T09:10:17;92946.75;;;-7.54
72405;BMP280;60395;52.020;113.548;2023-01-31T09:13:21;92954.41;;;-7.54
72405;BMP280;60395;52.020;113.548;2023-01-31T09:16:25;92957.41;;;-7.58
72405;BMP280;60395;52.020;113.548;2023-01-31T09:19:29;92963.72;;;-7.59
72405;BMP280;60395;52.020;113.548;2023-01-31T09:22:33;92973.56;;;-7.65
72405;BMP280;60395;52.020;113.548;2023-01-31T09:25:36;92978.78;;;-7.63
72405;BMP280;60395;52.020;113.548;2023-01-31T09:28:48;92978.41;;;-7.69
72405;BMP280;60395;52.020;113.548;2023-01-31T09:31:53;92980.59;;;-7.75
72405;BMP280;60395;52.020;113.548;2023-01-31T09:34:57;92985.88;;;-7.83
72405;BMP280;60395;52.020;113.548;2023-01-31T09:38:00;92991.75;;;-7.80
72405;BMP280;60395;52.020;113.548;2023-01-31T09:41:08;93003.03;;;-7.83
72405;BMP280;60395;52.020;113.548;2023-01-31T09:44:32;93009.66;;;-7.90
72405;BMP280;60395;52.020;113.548;2023-01-31T09:47:46;93026.47;;;-7.96
72405;BMP280;60395;52.020;113.548;2023-01-31T09:50:52;93021.75;;;-8.00
72405;BMP280;60395;52.020;113.548;2023-01-31T09:54:01;93029.59;;;-8.07
72405;BMP280;60395;52.020;113.548;2023-01-31T10:10:36;93045.78;;;-8.63
72405;BMP280;60395;52.020;113.548;2023-01-31T10:13:48;93062.78;;;-8.75
72405;BMP280;60395;52.020;113.548;2023-01-31T10:17:21;93065.22;;;-8.86
72405;BMP280;60395;52.020;113.548;2023-01-31T10:20:40;93066.41;;;-8.97
72405;BMP280;60395;52.020;113.548;2023-01-31T10:23:53;93068.81;;;-9.09
72405;BMP280;60395;52.020;113.548;2023-01-31T10:27:11;93080.31;;;-9.17
72405;BMP280;60395;52.020;113.548;2023-01-31T10:30:20;93079.47;;;-9.30
72405;BMP280;60395;52.020;113.548;2023-01-31T10:39:59;93101.50;;;-9.51
72405;BMP280;60395;52.020;113.548;2023-01-31T10:43:13;93094.66;;;-9.58
72405;BMP280;60395;52.020;113.548;2023-01-31T10:46:18;93103.03;;;-9.66
72405;BMP280;60395;52.020;113.548;2023-01-31T10:49:23;93109.06;;;-9.71
72405;BMP280;60395;52.020;113.548;2023-01-31T10:52:48;93116.38;;;-9.75
72405;BMP280;60395;52.020;113.548;2023-01-31T11:02:22;93132.97;;;-10.01
72405;BMP280;60395;52.020;113.548;2023-01-31T11:05:28;93136.44;;;-10.06
72405;BMP280;60395;52.020;113.548;2023-01-31T11:08:35;93139.44;;;-10.17
72405;BMP280;60395;52.020;113.548;2023-01-31T11:11:59;93144.88;;;-10.20
72405;BMP280;60395;52.020;113.548;2023-01-31T11:15:13;93152.03;;;-10.26
72405;BMP280;60395;52.020;113.548;2023-01-31T11:21:33;93164.38;;;-10.40
72405;BMP280;60395;52.020;113.548;2023-01-31T11:24:37;93170.75;;;-10.49
72405;BMP280;60395;52.020;113.548;2023-01-31T11:27:44;93174.69;;;-10.55
72405;BMP280;60395;52.020;113.548;2023-01-31T11:30:50;93187.72;;;-10.59
72405;BMP280;60395;52.020;113.548;2023-01-31T11:33:58;93184.72;;;-10.65
72405;BMP280;60395;52.020;113.548;2023-01-31T11:37:13;93191.22;;;-10.72
72405;BMP280;60395;52.020;113.548;2023-01-31T11:40:26;93192.94;;;-10.74
72405;BMP280;60395;52.020;113.548;2023-01-31T11:43:31;93205.44;;;-10.76
72405;BMP280;60395;52.020;113.548;2023-01-31T11:49:48;93215.66;;;-10.84
72405;BMP280;60395;52.020;113.548;2023-01-31T11:53:00;93217.69;;;-10.82
72405;BMP280;60395;52.020;113.548;2023-01-31T11:56:28;93229.38;;;-10.87
72405;BMP280;60395;52.020;113.548;2023-01-31T11:59:34;93230.78;;;-10.93
72405;BMP280;60395;52.020;113.548;2023-01-31T12:02:39;93240.44;;;-10.99
72405;BMP280;60395;52.020;113.548;2023-01-31T12:05:48;93238.81;;;-11.05
72405;BMP280;60395;52.020;113.548;2023-01-31T12:08:57;93246.94;;;-11.06
72405;BMP280;60395;52.020;113.548;2023-01-31T12:12:08;93253.38;;;-11.13
72405;BMP280;60395;52.020;113.548;2023-01-31T12:15:22;93255.09;;;-11.15
72405;BMP280;60395;52.020;113.548;2023-01-31T12:18:50;93261.47;;;-11.14
72405;BMP280;60395;52.020;113.548;2023-01-31T12:25:42;93272.88;;;-11.30
72405;BMP280;60395;52.020;113.548;2023-01-31T12:41:47;93280.94;;;-11.57
72405;BMP280;60395;52.020;113.548;2023-01-31T12:55:40;93304.47;;;-11.79
72405;BMP280;60395;52.020;113.548;2023-01-31T13:02:36;93292.47;;;-11.86
72405;BMP280;60395;52.020;113.548;2023-01-31T13:06:18;93305.00;;;-11.88
72405;BMP280;60395;52.020;113.548;2023-01-31T13:09:33;93297.72;;;-11.92
72405;BMP280;60395;52.020;113.548;2023-01-31T13:12:37;93299.09;;;-11.98
72405;BMP280;60395;52.020;113.548;2023-01-31T13:15:48;93304.00;;;-12.00
72405;BMP280;60395;52.020;113.548;2023-01-31T13:18:55;93309.56;;;-12.02
72405;BMP280;60395;52.020;113.548;2023-01-31T13:22:24;93319.53;;;-12.04
72405;BMP280;60395;52.020;113.548;2023-01-31T13:29:06;93337.59;;;-12.15
72405;BMP280;60395;52.020;113.548;2023-01-31T13:32:20;93326.63;;;-12.18
72405;BMP280;60395;52.020;113.548;2023-01-31T13:35:36;93340.28;;;-12.21
72405;BMP280;60395;52.020;113.548;2023-01-31T13:38:41;93350.25;;;-12.23
72405;BMP280;60395;52.020;113.548;2023-01-31T13:41:45;93351.44;;;-12.24
72405;BMP280;60395;52.020;113.548;2023-01-31T13:44:48;93359.34;;;-12.27
72405;BMP280;60395;52.020;113.548;2023-01-31T13:48:04;93362.88;;;-12.30
72405;BMP280;60395;52.020;113.548;2023-01-31T13:54:42;93377.41;;;-12.38
72405;BMP280;60395;52.020;113.548;2023-01-31T13:58:02;93375.69;;;-12.44
72405;BMP280;60395;52.020;113.548;2023-01-31T14:01:11;93384.28;;;-12.47
72405;BMP280;60395;52.020;113.548;2023-01-31T14:07:21;93390.34;;;-12.50
72405;BMP280;60395;52.020;113.548;2023-01-31T14:10:25;93398.44;;;-12.51
72405;BMP280;60395;52.020;113.548;2023-01-31T14:16:41;93399.78;;;-12.58
72405;BMP280;60395;52.020;113.548;2023-01-31T14:23:27;93408.56;;;-12.59
72405;BMP280;60395;52.020;113.548;2023-01-31T14:40:06;93410.78;;;-12.91
72405;BMP280;60395;52.020;113.548;2023-01-31T14:57:13;93438.00;;;-13.83
72405;BMP280;60395;52.020;113.548;2023-01-31T15:00:23;93436.53;;;-13.99
72405;BMP280;60395;52.020;113.548;2023-01-31T15:03:30;93434.81;;;-14.17
72405;BMP280;60395;52.020;113.548;2023-01-31T15:06:38;93432.84;;;-14.32
72405;BMP280;60395;52.020;113.548;2023-01-31T15:09:45;93425.66;;;-14.41
72405;BMP280;60395;52.020;113.548;2023-01-31T15:12:57;93424.91;;;-14.36
72405;BMP280;60395;52.020;113.548;2023-01-31T15:19:38;93429.16;;;-14.31
72405;BMP280;60395;52.020;113.548;2023-01-31T15:22:44;93441.38;;;-14.35
72405;BMP280;60395;52.020;113.548;2023-01-31T15:25:49;93448.31;;;-14.49
72405;BMP280;60395;52.020;113.548;2023-01-31T15:28:53;93453.66;;;-14.65
72405;BMP280;60395;52.020;113.548;2023-01-31T15:32:02;93452.78;;;-14.68
72405;BMP280;60395;52.020;113.548;2023-01-31T15:41:46;93456.66;;;-14.67
72405;BMP280;60395;52.020;113.548;2023-01-31T15:44:49;93456.47;;;-14.69
72405;BMP280;60395;52.020;113.548;2023-01-31T15:48:01;93451.81;;;-14.78
72405;BMP280;60395;52.020;113.548;2023-01-31T15:51:05;93462.47;;;-14.85
72405;BMP280;60395;52.020;113.548;2023-01-31T15:54:14;93464.03;;;-14.82
72405;BMP280;60395;52.020;113.548;2023-01-31T15:57:17;93465.59;;;-14.79
72405;BMP280;60395;52.020;113.548;2023-01-31T16:00:32;93479.06;;;-14.77
72405;BMP280;60395;52.020;113.548;2023-01-31T16:03:39;93477.41;;;-14.74
72405;BMP280;60395;52.020;113.548;2023-01-31T16:06:45;93479.94;;;-14.74
72405;BMP280;60395;52.020;113.548;2023-01-31T16:09:49;93494.59;;;-14.86
72405;BMP280;60395;52.020;113.548;2023-01-31T16:12:52;93496.50;;;-14.92
72405;BMP280;60395;52.020;113.548;2023-01-31T16:15:57;93481.66;;;-14.95
72405;BMP280;60395;52.020;113.548;2023-01-31T16:19:01;93490.19;;;-14.98
72405;BMP280;60395;52.020;113.548;2023-01-31T16:22:29;93494.69;;;-14.91
72405;BMP280;60395;52.020;113.548;2023-01-31T16:25:34;93492.91;;;-14.83
72405;BMP280;60395;52.020;113.548;2023-01-31T16:28:44;93497.00;;;-14.80
72405;BMP280;60395;52.020;113.548;2023-01-31T16:31:52;93502.22;;;-14.78
72405;BMP280;60395;52.020;113.548;2023-01-31T16:35:03;93497.09;;;-14.59
72405;BMP280;60395;52.020;113.548;2023-01-31T16:38:19;93503.94;;;-14.47
72405;BMP280;60395;52.020;113.548;2023-01-31T16:41:49;93511.16;;;-14.37
72405;BMP280;60395;52.020;113.548;2023-01-31T16:44:59;93512.50;;;-14.36
72405;BMP280;60395;52.020;113.548;2023-01-31T16:54:43;93519.56;;;-14.22
72405;BMP280;60395;52.020;113.548;2023-01-31T16:57:47;93505.56;;;-14.23
72405;BMP280;60395;52.020;113.548;2023-01-31T17:00:50;93510.34;;;-14.19
72405;BMP280;60395;52.020;113.548;2023-01-31T17:04:05;93513.81;;;-14.22
72405;BMP280;60395;52.020;113.548;2023-01-31T17:07:22;93522.19;;;-14.27
72405;BMP280;60395;52.020;113.548;2023-01-31T17:10:28;93520.91;;;-14.34
72405;BMP280;60395;52.020;113.548;2023-01-31T17:13:32;93517.66;;;-14.42
72405;BMP280;60395;52.020;113.548;2023-01-31T17:16:35;93530.34;;;-14.48
72405;BMP280;60395;52.020;113.548;2023-01-31T17:19:39;93527.94;;;-14.53
72405;BMP280;60395;52.020;113.548;2023-01-31T17:22:43;93525.69;;;-14.57
72405;BMP280;60395;52.020;113.548;2023-01-31T17:25:57;93533.56;;;-14.60
72405;BMP280;60395;52.020;113.548;2023-01-31T17:29:00;93539.09;;;-14.62
72405;BMP280;60395;52.020;113.548;2023-01-31T17:32:04;93535.00;;;-14.65
72405;BMP280;60395;52.020;113.548;2023-01-31T17:35:23;93533.47;;;-14.68
72405;BMP280;60395;52.020;113.548;2023-01-31T17:38:27;93539.47;;;-14.71
72405;BMP280;60395;52.020;113.548;2023-01-31T17:41:30;93541.78;;;-14.73
72405;BMP280;60395;52.020;113.548;2023-01-31T17:44:36;93548.75;;;-14.79
72405;BMP280;60395;52.020;113.548;2023-01-31T17:47:40;93552.25;;;-14.82
72405;BMP280;60395;52.020;113.548;2023-01-31T17:50:43;93556.41;;;-14.85
72405;BMP280;60395;52.020;113.548;2023-01-31T17:53:48;93551.66;;;-14.88
72405;BMP280;60395;52.020;113.548;2023-01-31T17:56:51;93560.66;;;-14.93
72405;BMP280;60395;52.020;113.548;2023-01-31T17:59:54;93563.19;;;-14.93
72405;BMP280;60395;52.020;113.548;2023-01-31T18:02:58;93563.59;;;-14.89
72405;BMP280;60395;52.020;113.548;2023-01-31T18:06:02;93567.69;;;-14.86
72405;BMP280;60395;52.020;113.548;2023-01-31T18:09:06;93568.53;;;-14.83
72405;BMP280;60395;52.020;113.548;2023-01-31T18:12:11;93569.22;;;-14.83
72405;BMP280;60395;52.020;113.548;2023-01-31T18:15:15;93581.81;;;-14.83
72405;BMP280;60395;52.020;113.548;2023-01-31T18:18:18;93577.06;;;-14.86
72405;BMP280;60395;52.020;113.548;2023-01-31T18:21:22;93582.81;;;-14.86
72405;BMP280;60395;52.020;113.548;2023-01-31T18:24:25;93591.03;;;-14.85
72405;BMP280;60395;52.020;113.548;2023-01-31T18:27:28;93591.41;;;-14.81
72405;BMP280;60395;52.020;113.548;2023-01-31T18:30:31;93595.56;;;-14.84
72405;BMP280;60395;52.020;113.548;2023-01-31T18:33:36;93603.13;;;-14.84
72405;BMP280;60395;52.020;113.548;2023-01-31T18:36:39;93599.53;;;-14.88
72405;BMP280;60395;52.020;113.548;2023-01-31T18:39:42;93597.50;;;-14.90
72405;BMP280;60395;52.020;113.548;2023-01-31T18:42:46;93600.09;;;-14.95
72405;BMP280;60395;52.020;113.548;2023-01-31T18:45:49;93596.50;;;-15.00
72405;BMP280;60395;52.020;113.548;2023-01-31T18:48:53;93604.25;;;-14.98
72405;BMP280;60395;52.020;113.548;2023-01-31T18:51:56;93600.38;;;-14.99
72405;BMP280;60395;52.020;113.548;2023-01-31T18:54:59;93604.75;;;-14.99
72405;BMP280;60395;52.020;113.548;2023-01-31T18:58:02;93610.78;;;-15.02
72405;BMP280;60395;52.020;113.548;2023-01-31T19:01:20;93606.88;;;-15.03
72405;BMP280;60395;52.020;113.548;2023-01-31T19:04:23;93607.81;;;-15.06
72405;BMP280;60395;52.020;113.548;2023-01-31T19:07:26;93613.81;;;-15.10
72405;BMP280;60395;52.020;113.548;2023-01-31T19:10:32;93612.69;;;-15.08
72405;BMP280;60395;52.020;113.548;2023-01-31T19:13:36;93610.16;;;-15.08
72405;BMP280;60395;52.020;113.548;2023-01-31T19:16:40;93606.06;;;-15.12
72405;BMP280;60395;52.020;113.548;2023-01-31T19:19:44;93602.25;;;-15.18
72405;BMP280;60395;52.020;113.548;2023-01-31T19:22:47;93606.34;;;-15.34
72405;BMP280;60395;52.020;113.548;2023-01-31T19:25:51;93611.38;;;-15.47
72405;BMP280;60395;52.020;113.548;2023-01-31T19:28:57;93612.84;;;-15.57
72405;BMP280;60395;52.020;113.548;2023-01-31T19:32:00;93611.41;;;-15.71
72405;BMP280;60395;52.020;113.548;2023-01-31T19:35:04;93614.50;;;-15.84
72405;BMP280;60395;52.020;113.548;2023-01-31T19:38:07;93602.56;;;-15.97
72405;BMP280;60395;52.020;113.548;2023-01-31T19:41:12;93607.06;;;-16.14
72405;BMP280;60395;52.020;113.548;2023-01-31T19:44:16;93614.31;;;-16.29
72405;BMP280;60395;52.020;113.548;2023-01-31T19:47:19;93607.28;;;-16.36
72405;BMP280;60395;52.020;113.548;2023-01-31T19:50:22;93609.84;;;-16.42
72405;BMP280;60395;52.020;113.548;2023-01-31T19:53:25;93609.88;;;-16.48
72405;BMP280;60395;52.020;113.548;2023-01-31T19:56:32;93606.28;;;-16.52
72405;BMP280;60395;52.020;113.548;2023-01-31T19:59:35;93601.72;;;-16.54